DNKN/KAN METAR and TAF weather

Enter ICAO airport designator
Station Type Date Time Source
DNKN METAR 2022/05/26 04:00 UTC NOAA

DNKN 260400Z 22006KT CAVOK 27/22 Q1016 NOSIG


Station Type Date Time Source
DNKN Decoded METAR 2022/05/26 04:00 UTC NOAA

Kano, Nigeria (DNKN) 12-03N 008-32E 481M
May 26, 2022 - 12:00 AM EDT / 2022.05.26 0400 UTC
Wind: from the SW (220 degrees) at 7 MPH (6 KT):0
Visibility: greater than 7 mile(s):0
Temperature: 80 F (27 C)
Dew Point: 71 F (22 C)
Relative Humidity: 74%
Pressure (altimeter): 30.00 in. Hg (1016 hPa)
ob: DNKN 260400Z 22006KT CAVOK 27/22 Q1016 NOSIG
cycle: 4

Station Type Date Time Source
DNKN TAF 2022/05/25 18:14 UTC NOAA

TAF DNKN 251700Z 2518/2624 26008KT CAVOK

Example: see airport list